sensor_id;sensor_type;location;lat;lon;timestamp;pressure;altitude;pressure_sealevel;temperature;humidity
65718;BME280;52445;52.466;-1.016;2024-01-07T00:00:08;100900.31;;;4.05;79.41
65718;BME280;52445;52.466;-1.016;2024-01-07T00:02:35;100900.09;;;3.99;80.18
65718;BME280;52445;52.466;-1.016;2024-01-07T00:05:03;100901.84;;;4.00;79.69
65718;BME280;52445;52.466;-1.016;2024-01-07T00:07:30;100903.44;;;3.98;79.37
65718;BME280;52445;52.466;-1.016;2024-01-07T00:09:56;100911.03;;;3.95;79.54
65718;BME280;52445;52.466;-1.016;2024-01-07T00:12:23;100915.97;;;3.90;79.32
65718;BME280;52445;52.466;-1.016;2024-01-07T00:14:51;100925.34;;;3.90;79.61
65718;BME280;52445;52.466;-1.016;2024-01-07T00:17:18;100920.09;;;3.86;80.16
65718;BME280;52445;52.466;-1.016;2024-01-07T00:19:44;100923.53;;;3.87;79.81
65718;BME280;52445;52.466;-1.016;2024-01-07T00:22:11;100928.63;;;3.85;79.69
65718;BME280;52445;52.466;-1.016;2024-01-07T00:24:38;100926.06;;;3.85;79.52
65718;BME280;52445;52.466;-1.016;2024-01-07T00:27:05;100934.50;;;3.83;79.59
65718;BME280;52445;52.466;-1.016;2024-01-07T00:29:31;100940.50;;;3.83;79.82
65718;BME280;52445;52.466;-1.016;2024-01-07T00:32:01;100930.25;;;3.83;79.93
65718;BME280;52445;52.466;-1.016;2024-01-07T00:34:28;100933.59;;;3.82;79.91
65718;BME280;52445;52.466;-1.016;2024-01-07T00:36:56;100932.75;;;3.82;79.98
65718;BME280;52445;52.466;-1.016;2024-01-07T00:39:24;100945.63;;;3.83;79.57
65718;BME280;52445;52.466;-1.016;2024-01-07T00:41:52;100939.75;;;3.86;79.62
65718;BME280;52445;52.466;-1.016;2024-01-07T00:44:18;100949.13;;;3.85;79.75
65718;BME280;52445;52.466;-1.016;2024-01-07T00:46:45;100947.38;;;3.84;79.75
65718;BME280;52445;52.466;-1.016;2024-01-07T00:49:14;100955.94;;;3.85;79.84
65718;BME280;52445;52.466;-1.016;2024-01-07T00:51:42;100953.31;;;3.83;79.54
65718;BME280;52445;52.466;-1.016;2024-01-07T00:54:08;100959.38;;;3.85;79.74
65718;BME280;52445;52.466;-1.016;2024-01-07T00:56:35;100956.69;;;3.82;79.82
65718;BME280;52445;52.466;-1.016;2024-01-07T00:59:02;100959.25;;;3.82;79.91
65718;BME280;52445;52.466;-1.016;2024-01-07T01:01:28;100963.50;;;3.82;79.85
65718;BME280;52445;52.466;-1.016;2024-01-07T01:03:55;100960.75;;;3.77;79.65
65718;BME280;52445;52.466;-1.016;2024-01-07T01:06:24;100965.88;;;3.77;79.74
65718;BME280;52445;52.466;-1.016;2024-01-07T01:08:51;100959.88;;;3.77;79.68
65718;BME280;52445;52.466;-1.016;2024-01-07T01:11:20;100966.63;;;3.75;79.61
65718;BME280;52445;52.466;-1.016;2024-01-07T01:13:47;100968.31;;;3.74;79.86
65718;BME280;52445;52.466;-1.016;2024-01-07T01:16:13;100970.06;;;3.75;79.50
65718;BME280;52445;52.466;-1.016;2024-01-07T01:18:41;100968.25;;;3.72;79.49
65718;BME280;52445;52.466;-1.016;2024-01-07T01:21:09;100973.38;;;3.72;79.97
65718;BME280;52445;52.466;-1.016;2024-01-07T01:23:36;100969.91;;;3.70;80.08
65718;BME280;52445;52.466;-1.016;2024-01-07T01:26:02;100974.13;;;3.70;79.99
65718;BME280;52445;52.466;-1.016;2024-01-07T01:28:29;100977.50;;;3.69;79.71
65718;BME280;52445;52.466;-1.016;2024-01-07T01:30:56;100980.91;;;3.68;80.06
65718;BME280;52445;52.466;-1.016;2024-01-07T01:33:23;100978.28;;;3.66;79.56
65718;BME280;52445;52.466;-1.016;2024-01-07T01:35:50;100982.50;;;3.66;79.62
65718;BME280;52445;52.466;-1.016;2024-01-07T01:38:17;100986.75;;;3.65;79.64
65718;BME280;52445;52.466;-1.016;2024-01-07T01:40:54;100985.88;;;3.65;79.80
65718;BME280;52445;52.466;-1.016;2024-01-07T01:43:26;100991.84;;;3.64;80.08
65718;BME280;52445;52.466;-1.016;2024-01-07T01:45:54;100996.00;;;3.62;79.32
65718;BME280;52445;52.466;-1.016;2024-01-07T01:48:22;101008.00;;;3.63;79.91
65718;BME280;52445;52.466;-1.016;2024-01-07T01:50:51;101001.13;;;3.62;79.93
65718;BME280;52445;52.466;-1.016;2024-01-07T01:53:20;101004.50;;;3.60;79.89
65718;BME280;52445;52.466;-1.016;2024-01-07T01:55:58;101007.06;;;3.60;79.90
65718;BME280;52445;52.466;-1.016;2024-01-07T01:58:27;101011.25;;;3.58;79.98
65718;BME280;52445;52.466;-1.016;2024-01-07T02:00:55;101009.50;;;3.57;80.42
65718;BME280;52445;52.466;-1.016;2024-01-07T02:03:22;101012.97;;;3.58;79.95
65718;BME280;52445;52.466;-1.016;2024-01-07T02:05:53;101014.50;;;3.54;79.92
65718;BME280;52445;52.466;-1.016;2024-01-07T02:08:20;101018.94;;;3.58;79.98
65718;BME280;52445;52.466;-1.016;2024-01-07T02:10:47;101020.63;;;3.58;79.79
65718;BME280;52445;52.466;-1.016;2024-01-07T02:13:14;101021.44;;;3.57;80.05
65718;BME280;52445;52.466;-1.016;2024-01-07T02:15:40;101024.88;;;3.57;79.64
65718;BME280;52445;52.466;-1.016;2024-01-07T02:18:10;101026.47;;;3.55;79.39
65718;BME280;52445;52.466;-1.016;2024-01-07T02:20:37;101025.44;;;3.50;79.92
65718;BME280;52445;52.466;-1.016;2024-01-07T02:23:04;101031.22;;;3.46;79.73
65718;BME280;52445;52.466;-1.016;2024-01-07T02:25:38;101025.22;;;3.45;79.81
65718;BME280;52445;52.466;-1.016;2024-01-07T02:28:05;101031.22;;;3.46;79.78
65718;BME280;52445;52.466;-1.016;2024-01-07T02:30:32;101030.34;;;3.45;79.63
65718;BME280;52445;52.466;-1.016;2024-01-07T02:33:01;101033.78;;;3.46;79.63
65718;BME280;52445;52.466;-1.016;2024-01-07T02:35:30;101041.47;;;3.46;79.75
65718;BME280;52445;52.466;-1.016;2024-01-07T02:37:56;101042.44;;;3.48;80.02
65718;BME280;52445;52.466;-1.016;2024-01-07T02:40:23;101038.09;;;3.47;79.68
65718;BME280;52445;52.466;-1.016;2024-01-07T02:42:50;101041.53;;;3.47;79.61
65718;BME280;52445;52.466;-1.016;2024-01-07T02:45:16;101038.09;;;3.47;79.70
65718;BME280;52445;52.466;-1.016;2024-01-07T02:47:43;101041.63;;;3.49;80.08
65718;BME280;52445;52.466;-1.016;2024-01-07T02:50:10;101045.78;;;3.47;79.70
65718;BME280;52445;52.466;-1.016;2024-01-07T02:52:37;101042.38;;;3.46;79.74
65718;BME280;52445;52.466;-1.016;2024-01-07T02:55:07;101046.59;;;3.46;79.27
65718;BME280;52445;52.466;-1.016;2024-01-07T02:57:33;101048.22;;;3.44;79.59
65718;BME280;52445;52.466;-1.016;2024-01-07T03:00:00;101047.34;;;3.43;79.54
65718;BME280;52445;52.466;-1.016;2024-01-07T03:02:27;101049.97;;;3.45;79.80
65718;BME280;52445;52.466;-1.016;2024-01-07T03:04:54;101053.34;;;3.44;79.88
65718;BME280;52445;52.466;-1.016;2024-01-07T03:07:20;101052.53;;;3.45;79.42
65718;BME280;52445;52.466;-1.016;2024-01-07T03:09:48;101054.22;;;3.44;79.66
65718;BME280;52445;52.466;-1.016;2024-01-07T03:12:15;101060.22;;;3.45;79.80
65718;BME280;52445;52.466;-1.016;2024-01-07T03:14:43;101056.84;;;3.46;79.47
65718;BME280;52445;52.466;-1.016;2024-01-07T03:17:10;101053.47;;;3.47;79.51
65718;BME280;52445;52.466;-1.016;2024-01-07T03:19:38;101064.47;;;3.44;80.02
65718;BME280;52445;52.466;-1.016;2024-01-07T03:22:05;101070.34;;;3.42;79.55
65718;BME280;52445;52.466;-1.016;2024-01-07T03:24:34;101067.72;;;3.40;79.30
65718;BME280;52445;52.466;-1.016;2024-01-07T03:27:02;101071.16;;;3.41;79.07
65718;BME280;52445;52.466;-1.016;2024-01-07T03:29:30;101071.94;;;3.40;79.34
65718;BME280;52445;52.466;-1.016;2024-01-07T03:31:57;101073.56;;;3.38;79.45
65718;BME280;52445;52.466;-1.016;2024-01-07T03:34:23;101076.97;;;3.37;78.88
65718;BME280;52445;52.466;-1.016;2024-01-07T03:36:50;101076.06;;;3.36;79.40
65718;BME280;52445;52.466;-1.016;2024-01-07T03:39:18;101077.66;;;3.34;79.27
65718;BME280;52445;52.466;-1.016;2024-01-07T03:41:45;101088.81;;;3.34;78.79
65718;BME280;52445;52.466;-1.016;2024-01-07T03:44:12;101086.16;;;3.33;79.38
65718;BME280;52445;52.466;-1.016;2024-01-07T03:46:41;101087.06;;;3.33;78.60
65718;BME280;52445;52.466;-1.016;2024-01-07T03:49:07;101088.66;;;3.31;79.24
65718;BME280;52445;52.466;-1.016;2024-01-07T03:51:34;101093.63;;;3.28;78.69
65718;BME280;52445;52.466;-1.016;2024-01-07T03:54:01;101096.19;;;3.28;79.27
65718;BME280;52445;52.466;-1.016;2024-01-07T03:56:27;101090.28;;;3.29;78.76
65718;BME280;52445;52.466;-1.016;2024-01-07T03:58:54;101085.19;;;3.29;78.68
65718;BME280;52445;52.466;-1.016;2024-01-07T04:01:21;101091.91;;;3.27;78.97
65718;BME280;52445;52.466;-1.016;2024-01-07T04:03:49;101100.41;;;3.26;78.51
65718;BME280;52445;52.466;-1.016;2024-01-07T04:06:15;101098.66;;;3.25;78.40
65718;BME280;52445;52.466;-1.016;2024-01-07T04:08:42;101103.63;;;3.22;78.18
65718;BME280;52445;52.466;-1.016;2024-01-07T04:11:10;101108.00;;;3.25;78.67
65718;BME280;52445;52.466;-1.016;2024-01-07T04:13:37;101108.91;;;3.25;78.73
65718;BME280;52445;52.466;-1.016;2024-01-07T04:16:03;101112.25;;;3.24;78.63
65718;BME280;52445;52.466;-1.016;2024-01-07T04:18:31;101116.50;;;3.24;79.10
65718;BME280;52445;52.466;-1.016;2024-01-07T04:20:58;101115.63;;;3.23;78.62
65718;BME280;52445;52.466;-1.016;2024-01-07T04:23:28;101118.19;;;3.23;78.64
65718;BME280;52445;52.466;-1.016;2024-01-07T04:25:55;101119.81;;;3.21;78.19
65718;BME280;52445;52.466;-1.016;2024-01-07T04:28:21;101120.66;;;3.21;78.47
65718;BME280;52445;52.466;-1.016;2024-01-07T04:30:48;101129.25;;;3.22;78.34
65718;BME280;52445;52.466;-1.016;2024-01-07T04:33:15;101123.22;;;3.21;78.00
65718;BME280;52445;52.466;-1.016;2024-01-07T04:35:42;101125.72;;;3.20;78.32
65718;BME280;52445;52.466;-1.016;2024-01-07T04:38:08;101118.03;;;3.20;78.23
65718;BME280;52445;52.466;-1.016;2024-01-07T04:40:35;101123.09;;;3.18;78.82
65718;BME280;52445;52.466;-1.016;2024-01-07T04:43:03;101115.34;;;3.17;78.06
65718;BME280;52445;52.466;-1.016;2024-01-07T04:45:30;101121.19;;;3.14;78.47
65718;BME280;52445;52.466;-1.016;2024-01-07T04:47:56;101116.00;;;3.13;78.26
65718;BME280;52445;52.466;-1.016;2024-01-07T04:50:23;101120.06;;;3.07;78.52
65718;BME280;52445;52.466;-1.016;2024-01-07T04:52:50;101121.53;;;3.02;78.21
65718;BME280;52445;52.466;-1.016;2024-01-07T04:55:17;101116.13;;;2.96;78.14
65718;BME280;52445;52.466;-1.016;2024-01-07T04:57:43;101120.84;;;2.87;77.62
65718;BME280;52445;52.466;-1.016;2024-01-07T05:00:11;101119.72;;;2.81;78.13
65718;BME280;52445;52.466;-1.016;2024-01-07T05:02:38;101125.38;;;2.74;77.42
65718;BME280;52445;52.466;-1.016;2024-01-07T05:05:04;101126.03;;;2.70;78.28
65718;BME280;52445;52.466;-1.016;2024-01-07T05:07:31;101131.81;;;2.66;77.40
65718;BME280;52445;52.466;-1.016;2024-01-07T05:09:59;101131.53;;;2.60;78.46
65718;BME280;52445;52.466;-1.016;2024-01-07T05:12:27;101139.88;;;2.55;77.56
65718;BME280;52445;52.466;-1.016;2024-01-07T05:14:54;101133.56;;;2.49;77.68
65718;BME280;52445;52.466;-1.016;2024-01-07T05:17:21;101137.66;;;2.45;77.60
65718;BME280;52445;52.466;-1.016;2024-01-07T05:19:49;101137.34;;;2.39;78.23
65718;BME280;52445;52.466;-1.016;2024-01-07T05:22:16;101137.06;;;2.33;78.15
65718;BME280;52445;52.466;-1.016;2024-01-07T05:24:43;101147.00;;;2.26;78.35
65718;BME280;52445;52.466;-1.016;2024-01-07T05:27:10;101144.44;;;2.26;78.87
65718;BME280;52445;52.466;-1.016;2024-01-07T05:29:36;101141.88;;;2.26;77.57
65718;BME280;52445;52.466;-1.016;2024-01-07T05:32:03;101145.81;;;2.20;78.49
65718;BME280;52445;52.466;-1.016;2024-01-07T05:34:31;101149.91;;;2.16;79.08
65718;BME280;52445;52.466;-1.016;2024-01-07T05:36:58;101157.59;;;2.16;77.99
65718;BME280;52445;52.466;-1.016;2024-01-07T05:39:26;101155.72;;;2.13;77.96
65718;BME280;52445;52.466;-1.016;2024-01-07T05:41:53;101163.31;;;2.12;77.77
65718;BME280;52445;52.466;-1.016;2024-01-07T05:44:19;101164.78;;;2.07;77.64
65718;BME280;52445;52.466;-1.016;2024-01-07T05:46:46;101162.22;;;2.07;78.39
65718;BME280;52445;52.466;-1.016;2024-01-07T05:49:13;101164.47;;;2.00;79.15
65718;BME280;52445;52.466;-1.016;2024-01-07T05:51:40;101165.25;;;1.99;78.61
65718;BME280;52445;52.466;-1.016;2024-01-07T05:54:07;101172.72;;;1.95;79.19
65718;BME280;52445;52.466;-1.016;2024-01-07T05:56:42;101178.69;;;1.95;78.57
65718;BME280;52445;52.466;-1.016;2024-01-07T05:59:08;101181.81;;;1.89;79.17
65718;BME280;52445;52.466;-1.016;2024-01-07T06:01:35;101189.56;;;1.91;78.58
65718;BME280;52445;52.466;-1.016;2024-01-07T06:04:02;101184.34;;;1.89;79.39
65718;BME280;52445;52.466;-1.016;2024-01-07T06:06:31;101192.75;;;1.87;79.44
65718;BME280;52445;52.466;-1.016;2024-01-07T06:09:00;101189.09;;;1.82;78.36
65718;BME280;52445;52.466;-1.016;2024-01-07T06:11:28;101194.19;;;1.82;79.17
65718;BME280;52445;52.466;-1.016;2024-01-07T06:13:55;101192.41;;;1.80;79.63
65718;BME280;52445;52.466;-1.016;2024-01-07T06:16:21;101192.41;;;1.80;78.06
65718;BME280;52445;52.466;-1.016;2024-01-07T06:18:48;101194.97;;;1.80;79.07
65718;BME280;52445;52.466;-1.016;2024-01-07T06:21:15;101196.66;;;1.80;78.41
65718;BME280;52445;52.466;-1.016;2024-01-07T06:23:41;101196.50;;;1.77;78.94
65718;BME280;52445;52.466;-1.016;2024-01-07T06:26:08;101197.41;;;1.77;78.82
65718;BME280;52445;52.466;-1.016;2024-01-07T06:28:35;101192.28;;;1.77;79.06
65718;BME280;52445;52.466;-1.016;2024-01-07T06:31:02;101194.84;;;1.77;78.87
65718;BME280;52445;52.466;-1.016;2024-01-07T06:33:29;101200.72;;;1.76;78.26
65718;BME280;52445;52.466;-1.016;2024-01-07T06:35:56;101196.44;;;1.75;78.60
65718;BME280;52445;52.466;-1.016;2024-01-07T06:38:23;101205.16;;;1.79;78.62
65718;BME280;52445;52.466;-1.016;2024-01-07T06:40:50;101210.94;;;1.76;79.48
65718;BME280;52445;52.466;-1.016;2024-01-07T06:43:17;101212.09;;;1.82;78.31
65718;BME280;52445;52.466;-1.016;2024-01-07T06:45:44;101218.13;;;1.84;79.47
65718;BME280;52445;52.466;-1.016;2024-01-07T06:48:11;101219.09;;;1.86;79.04
65718;BME280;52445;52.466;-1.016;2024-01-07T06:50:37;101228.59;;;1.88;79.47
65718;BME280;52445;52.466;-1.016;2024-01-07T06:53:04;101226.94;;;1.89;78.83
65718;BME280;52445;52.466;-1.016;2024-01-07T06:55:31;101232.03;;;1.89;78.61
65718;BME280;52445;52.466;-1.016;2024-01-07T06:57:57;101240.50;;;1.88;79.26
65718;BME280;52445;52.466;-1.016;2024-01-07T07:00:24;101245.03;;;1.93;79.28
65718;BME280;52445;52.466;-1.016;2024-01-07T07:02:51;101240.81;;;1.94;78.70
65718;BME280;52445;52.466;-1.016;2024-01-07T07:05:18;101244.31;;;1.96;78.77
65718;BME280;52445;52.466;-1.016;2024-01-07T07:07:45;101247.69;;;1.95;77.75
65718;BME280;52445;52.466;-1.016;2024-01-07T07:10:12;101258.06;;;1.98;78.11
65718;BME280;52445;52.466;-1.016;2024-01-07T07:12:39;101251.75;;;1.91;78.22
65718;BME280;52445;52.466;-1.016;2024-01-07T07:15:05;101264.75;;;1.96;78.82
65718;BME280;52445;52.466;-1.016;2024-01-07T07:17:32;101263.00;;;1.95;77.91
65718;BME280;52445;52.466;-1.016;2024-01-07T07:19:59;101268.84;;;1.92;77.63
65718;BME280;52445;52.466;-1.016;2024-01-07T07:22:26;101264.63;;;1.93;77.54
65718;BME280;52445;52.466;-1.016;2024-01-07T07:24:52;101265.56;;;1.95;77.50
65718;BME280;52445;52.466;-1.016;2024-01-07T07:27:21;101278.25;;;1.93;77.29
65718;BME280;52445;52.466;-1.016;2024-01-07T07:29:47;101271.47;;;1.94;77.04
65718;BME280;52445;52.466;-1.016;2024-01-07T07:32:17;101280.59;;;1.89;76.94
65718;BME280;52445;52.466;-1.016;2024-01-07T07:34:46;101276.09;;;1.85;76.47
65718;BME280;52445;52.466;-1.016;2024-01-07T07:37:13;101282.00;;;1.84;76.79
65718;BME280;52445;52.466;-1.016;2024-01-07T07:39:41;101286.00;;;1.78;77.41
65718;BME280;52445;52.466;-1.016;2024-01-07T07:42:09;101290.31;;;1.79;77.77
65718;BME280;52445;52.466;-1.016;2024-01-07T07:44:36;101296.94;;;1.76;76.58
65718;BME280;52445;52.466;-1.016;2024-01-07T07:47:05;101294.03;;;1.70;77.37
65718;BME280;52445;52.466;-1.016;2024-01-07T07:49:32;101302.59;;;1.70;77.23
65718;BME280;52445;52.466;-1.016;2024-01-07T07:51:58;101305.94;;;1.69;76.19
65718;BME280;52445;52.466;-1.016;2024-01-07T07:54:25;101304.00;;;1.65;76.89
65718;BME280;52445;52.466;-1.016;2024-01-07T07:56:52;101293.75;;;1.63;76.53
65718;BME280;52445;52.466;-1.016;2024-01-07T07:59:19;101303.69;;;1.59;76.76
65718;BME280;52445;52.466;-1.016;2024-01-07T08:01:45;101313.81;;;1.57;75.60
65718;BME280;52445;52.466;-1.016;2024-01-07T08:04:12;101316.38;;;1.57;76.66
65718;BME280;52445;52.466;-1.016;2024-01-07T08:06:39;101320.78;;;1.60;76.93
65718;BME280;52445;52.466;-1.016;2024-01-07T08:09:06;101320.59;;;1.57;76.27
65718;BME280;52445;52.466;-1.016;2024-01-07T08:11:33;101320.41;;;1.53;76.88
65718;BME280;52445;52.466;-1.016;2024-01-07T08:14:02;101323.78;;;1.52;76.40
65718;BME280;52445;52.466;-1.016;2024-01-07T08:16:29;101322.19;;;1.54;76.47
65718;BME280;52445;52.466;-1.016;2024-01-07T08:18:55;101324.13;;;1.59;75.52
65718;BME280;52445;52.466;-1.016;2024-01-07T08:21:23;101330.63;;;1.53;76.74
65718;BME280;52445;52.466;-1.016;2024-01-07T08:23:53;101333.19;;;1.53;76.54
65718;BME280;52445;52.466;-1.016;2024-01-07T08:26:20;101339.28;;;1.56;76.97
65718;BME280;52445;52.466;-1.016;2024-01-07T08:28:47;101341.03;;;1.57;77.16
65718;BME280;52445;52.466;-1.016;2024-01-07T08:31:14;101335.69;;;1.52;76.55
65718;BME280;52445;52.466;-1.016;2024-01-07T08:33:40;101344.56;;;1.59;76.95
65718;BME280;52445;52.466;-1.016;2024-01-07T08:36:07;101351.41;;;1.60;77.08
65718;BME280;52445;52.466;-1.016;2024-01-07T08:38:34;101345.50;;;1.61;76.37
65718;BME280;52445;52.466;-1.016;2024-01-07T08:41:01;101342.94;;;1.61;76.83
65718;BME280;52445;52.466;-1.016;2024-01-07T08:43:28;101357.50;;;1.62;76.74
65718;BME280;52445;52.466;-1.016;2024-01-07T08:45:56;101365.16;;;1.62;76.99
65718;BME280;52445;52.466;-1.016;2024-01-07T08:48:23;101368.84;;;1.67;76.62
65718;BME280;52445;52.466;-1.016;2024-01-07T08:50:49;101361.97;;;1.66;77.09
65718;BME280;52445;52.466;-1.016;2024-01-07T08:53:17;101364.69;;;1.69;75.94
65718;BME280;52445;52.466;-1.016;2024-01-07T08:55:45;101368.84;;;1.67;77.06
65718;BME280;52445;52.466;-1.016;2024-01-07T08:58:12;101367.31;;;1.71;76.29
65718;BME280;52445;52.466;-1.016;2024-01-07T09:00:38;101365.84;;;1.74;76.63
65718;BME280;52445;52.466;-1.016;2024-01-07T09:03:05;101371.13;;;1.77;76.91
65718;BME280;52445;52.466;-1.016;2024-01-07T09:05:33;101381.47;;;1.80;75.71
65718;BME280;52445;52.466;-1.016;2024-01-07T09:08:00;101379.91;;;1.83;76.04
65718;BME280;52445;52.466;-1.016;2024-01-07T09:10:31;101373.97;;;1.84;77.10
65718;BME280;52445;52.466;-1.016;2024-01-07T09:13:00;101378.28;;;1.85;76.08
65718;BME280;52445;52.466;-1.016;2024-01-07T09:15:26;101380.06;;;1.86;75.61
65718;BME280;52445;52.466;-1.016;2024-01-07T09:17:53;101390.59;;;1.92;76.06
65718;BME280;52445;52.466;-1.016;2024-01-07T09:20:20;101387.38;;;1.95;76.49
65718;BME280;52445;52.466;-1.016;2024-01-07T09:22:47;101393.25;;;1.93;76.76
65718;BME280;52445;52.466;-1.016;2024-01-07T09:25:14;101395.09;;;1.96;76.55
65718;BME280;52445;52.466;-1.016;2024-01-07T09:27:42;101387.59;;;1.99;75.76
65718;BME280;52445;52.466;-1.016;2024-01-07T09:30:11;101389.38;;;2.00;75.23
65718;BME280;52445;52.466;-1.016;2024-01-07T09:32:41;101391.13;;;2.01;75.51
65718;BME280;52445;52.466;-1.016;2024-01-07T09:35:08;101396.56;;;2.08;75.81
65718;BME280;52445;52.466;-1.016;2024-01-07T09:37:35;101396.56;;;2.08;75.43
65718;BME280;52445;52.466;-1.016;2024-01-07T09:40:03;101400.72;;;2.05;75.63
65718;BME280;52445;52.466;-1.016;2024-01-07T09:42:32;101400.25;;;2.13;75.94
65718;BME280;52445;52.466;-1.016;2024-01-07T09:45:02;101395.16;;;2.13;75.27
65718;BME280;52445;52.466;-1.016;2024-01-07T09:47:33;101404.91;;;2.20;76.49
65718;BME280;52445;52.466;-1.016;2024-01-07T09:50:01;101409.84;;;2.17;76.56
65718;BME280;52445;52.466;-1.016;2024-01-07T09:52:28;101408.50;;;2.24;75.93
65718;BME280;52445;52.466;-1.016;2024-01-07T09:54:58;101402.47;;;2.23;75.56
65718;BME280;52445;52.466;-1.016;2024-01-07T09:57:27;101414.81;;;2.30;75.02
65718;BME280;52445;52.466;-1.016;2024-01-07T09:59:55;101413.22;;;2.33;75.11
65718;BME280;52445;52.466;-1.016;2024-01-07T10:02:22;101420.97;;;2.34;75.90
65718;BME280;52445;52.466;-1.016;2024-01-07T10:04:51;101422.81;;;2.37;75.25
65718;BME280;52445;52.466;-1.016;2024-01-07T10:07:19;101427.91;;;2.37;75.53
65718;BME280;52445;52.466;-1.016;2024-01-07T10:09:46;101430.66;;;2.40;75.36
65718;BME280;52445;52.466;-1.016;2024-01-07T10:12:14;101440.25;;;2.44;74.66
65718;BME280;52445;52.466;-1.016;2024-01-07T10:14:41;101436.88;;;2.45;74.72
65718;BME280;52445;52.466;-1.016;2024-01-07T10:17:17;101438.06;;;2.52;74.34
65718;BME280;52445;52.466;-1.016;2024-01-07T10:19:44;101448.56;;;2.56;74.33
65718;BME280;52445;52.466;-1.016;2024-01-07T10:22:14;101452.88;;;2.57;74.67
65718;BME280;52445;52.466;-1.016;2024-01-07T10:24:42;101458.06;;;2.59;73.85
65718;BME280;52445;52.466;-1.016;2024-01-07T10:27:10;101451.28;;;2.60;73.69
65718;BME280;52445;52.466;-1.016;2024-01-07T10:29:39;101453.19;;;2.64;74.43
65718;BME280;52445;52.466;-1.016;2024-01-07T10:32:07;101460.41;;;2.71;74.59
65718;BME280;52445;52.466;-1.016;2024-01-07T10:34:46;101450.25;;;2.73;74.16
65718;BME280;52445;52.466;-1.016;2024-01-07T10:37:14;101449.53;;;2.75;73.58
65718;BME280;52445;52.466;-1.016;2024-01-07T10:39:41;101464.41;;;2.82;74.04
65718;BME280;52445;52.466;-1.016;2024-01-07T10:42:08;101457.59;;;2.83;73.45
65718;BME280;52445;52.466;-1.016;2024-01-07T10:44:37;101465.75;;;2.92;73.66
65718;BME280;52445;52.466;-1.016;2024-01-07T10:47:07;101471.09;;;2.97;73.82
65718;BME280;52445;52.466;-1.016;2024-01-07T10:49:36;101466.28;;;3.03;72.92
65718;BME280;52445;52.466;-1.016;2024-01-07T10:52:07;101466.91;;;3.16;73.19
65718;BME280;52445;52.466;-1.016;2024-01-07T10:54:44;101469.31;;;3.29;72.84
65718;BME280;52445;52.466;-1.016;2024-01-07T10:59:53;101476.63;;;3.40;72.52
65718;BME280;52445;52.466;-1.016;2024-01-07T11:02:23;101481.41;;;3.50;72.05
65718;BME280;52445;52.466;-1.016;2024-01-07T11:05:12;101480.91;;;3.57;72.41
65718;BME280;52445;52.466;-1.016;2024-01-07T11:07:46;101482.97;;;3.65;71.76
65718;BME280;52445;52.466;-1.016;2024-01-07T11:10:20;101488.25;;;3.68;71.01
65718;BME280;52445;52.466;-1.016;2024-01-07T11:13:00;101489.13;;;3.68;71.55
65718;BME280;52445;52.466;-1.016;2024-01-07T11:18:26;101492.94;;;4.13;70.47
65718;BME280;52445;52.466;-1.016;2024-01-07T11:20:59;101497.53;;;4.02;71.36
65718;BME280;52445;52.466;-1.016;2024-01-07T11:26:03;101487.59;;;4.08;71.00
65718;BME280;52445;52.466;-1.016;2024-01-07T11:28:52;101488.69;;;4.14;71.07
65718;BME280;52445;52.466;-1.016;2024-01-07T11:31:20;101493.50;;;4.26;70.62
65718;BME280;52445;52.466;-1.016;2024-01-07T11:33:50;101496.38;;;4.32;71.33
65718;BME280;52445;52.466;-1.016;2024-01-07T11:36:18;101498.28;;;4.36;70.54
65718;BME280;52445;52.466;-1.016;2024-01-07T11:38:45;101497.00;;;4.46;71.41
65718;BME280;52445;52.466;-1.016;2024-01-07T11:41:20;101501.81;;;4.58;71.25
65718;BME280;52445;52.466;-1.016;2024-01-07T11:46:30;101506.78;;;4.73;70.75
65718;BME280;52445;52.466;-1.016;2024-01-07T11:48:58;101498.50;;;4.80;69.77
65718;BME280;52445;52.466;-1.016;2024-01-07T11:51:28;101493.78;;;4.89;70.43
65718;BME280;52445;52.466;-1.016;2024-01-07T11:53:55;101496.97;;;5.04;68.36
65718;BME280;52445;52.466;-1.016;2024-01-07T11:56:31;101492.41;;;5.18;67.00
65718;BME280;52445;52.466;-1.016;2024-01-07T11:58:58;101493.47;;;5.23;67.26
65718;BME280;52445;52.466;-1.016;2024-01-07T12:01:26;101497.97;;;5.07;64.86
65718;BME280;52445;52.466;-1.016;2024-01-07T12:03:53;101496.91;;;5.02;65.18
65718;BME280;52445;52.466;-1.016;2024-01-07T12:06:20;101496.22;;;4.86;64.35
65718;BME280;52445;52.466;-1.016;2024-01-07T12:08:48;101497.78;;;4.83;65.98
65718;BME280;52445;52.466;-1.016;2024-01-07T12:11:16;101500.16;;;4.78;65.42
65718;BME280;52445;52.466;-1.016;2024-01-07T12:13:43;101492.97;;;4.71;65.84
65718;BME280;52445;52.466;-1.016;2024-01-07T12:19:15;101492.69;;;4.65;65.51
65718;BME280;52445;52.466;-1.016;2024-01-07T12:21:42;101498.63;;;4.63;65.49
65718;BME280;52445;52.466;-1.016;2024-01-07T12:24:12;101492.50;;;4.60;64.72
65718;BME280;52445;52.466;-1.016;2024-01-07T12:26:40;101491.69;;;4.61;66.07
65718;BME280;52445;52.466;-1.016;2024-01-07T12:29:06;101491.63;;;4.59;65.93
65718;BME280;52445;52.466;-1.016;2024-01-07T12:31:34;101492.44;;;4.58;64.92
65718;BME280;52445;52.466;-1.016;2024-01-07T12:34:02;101484.88;;;4.61;64.76
65718;BME280;52445;52.466;-1.016;2024-01-07T12:36:30;101485.13;;;4.68;64.59
65718;BME280;52445;52.466;-1.016;2024-01-07T12:38:58;101489.59;;;4.72;64.47
65718;BME280;52445;52.466;-1.016;2024-01-07T12:41:25;101489.53;;;4.70;63.58
65718;BME280;52445;52.466;-1.016;2024-01-07T12:43:52;101485.94;;;4.67;64.43
65718;BME280;52445;52.466;-1.016;2024-01-07T12:46:18;101496.22;;;4.67;63.84
65718;BME280;52445;52.466;-1.016;2024-01-07T12:48:46;101501.81;;;4.58;63.96
65718;BME280;52445;52.466;-1.016;2024-01-07T12:51:12;101491.72;;;4.43;62.30
65718;BME280;52445;52.466;-1.016;2024-01-07T12:53:39;101500.25;;;4.42;63.46
65718;BME280;52445;52.466;-1.016;2024-01-07T12:56:06;101480.41;;;4.37;62.79
65718;BME280;52445;52.466;-1.016;2024-01-07T12:58:33;101493.22;;;4.37;63.97
65718;BME280;52445;52.466;-1.016;2024-01-07T13:01:00;101488.94;;;4.38;64.45
65718;BME280;52445;52.466;-1.016;2024-01-07T13:03:27;101483.75;;;4.36;64.80
65718;BME280;52445;52.466;-1.016;2024-01-07T13:05:54;101486.03;;;4.30;62.86